Terminal Aerodrome Forecast
Issued by NWS

Home | Current Version | Previous Version | Text Only | Print | Product List | Glossary On
Versions: 1 2 3 4 5 6 7 8 9 10 11 12 13 14 15 16 17 18 19
000
FTUS45 KTFX 161143
TAFCTB
TAF
KCTB 161143Z 1612/1712 14006KT 1/2SM FZFG VV002
      TEMPO 1612/1615 4SM BR SCT005 OVC015
     FM161500 20011KT P6SM SKC
     FM162200 25015G24KT P6SM SCT100 BKN180=

USA.gov is the U.S. government's official web portal to all federal, state and local government web resources and services.